createdAt,value
2022-07-25T00:04:12.090Z,97561.97
2022-07-25T00:09:15.320Z,97625.06
2022-07-25T00:14:17.945Z,97575.22
2022-07-25T00:19:20.658Z,97404.09
2022-07-25T00:24:23.578Z,97511.41
2022-07-25T00:29:26.160Z,97448.16
2022-07-25T00:34:29.032Z,97559.88
2022-07-25T00:39:31.839Z,97582.44
2022-07-25T00:44:38.343Z,97627.41
2022-07-25T00:49:40.867Z,97620.56
2022-07-25T00:54:43.821Z,97532.72
2022-07-25T00:59:47.749Z,97478.06
2022-07-25T01:04:50.775Z,97501.53
2022-07-25T01:09:53.775Z,97366.56
2022-07-25T01:14:56.396Z,97387.41
2022-07-25T01:19:59.341Z,97407.59
2022-07-25T01:25:02.093Z,97577.56
2022-07-25T01:30:09.851Z,97573.44
2022-07-25T01:35:14.503Z,97605.72
2022-07-25T01:40:17.833Z,97615.84
2022-07-25T01:45:20.538Z,97528.47
2022-07-25T01:50:23.358Z,97562.50
2022-07-25T01:55:26.413Z,97548.47
2022-07-25T02:00:30.766Z,97537.66
2022-07-25T02:05:33.559Z,97391.69
2022-07-25T02:10:36.302Z,97440.81
2022-07-25T02:15:39.987Z,97571.31
2022-07-25T02:20:43.452Z,97433.28
2022-07-25T02:25:46.103Z,97445.66
2022-07-25T02:30:48.935Z,97486.22
2022-07-25T02:35:51.711Z,97577.44
2022-07-25T02:40:54.503Z,97451.59
2022-07-25T02:45:58.911Z,97569.28
2022-07-25T02:51:01.671Z,97449.75
2022-07-25T02:56:04.460Z,97351.69
2022-07-25T03:01:08.563Z,97483.84
2022-07-25T03:06:11.434Z,97554.16
2022-07-25T03:11:14.645Z,97560.09
2022-07-25T03:16:17.641Z,97563.34
2022-07-25T03:21:20.498Z,97546.53
2022-07-25T03:26:23.447Z,97453.47
2022-07-25T03:31:27.959Z,97471.97
2022-07-25T03:36:30.769Z,97546.50
2022-07-25T03:41:33.837Z,97551.97
2022-07-25T03:46:36.550Z,97488.28
2022-07-25T03:51:39.259Z,97495.03
2022-07-25T03:56:48.040Z,97550.94
2022-07-25T04:01:51.952Z,97543.13
2022-07-25T04:06:54.780Z,97517.13
2022-07-25T04:11:58.208Z,97565.56
2022-07-25T04:17:01.055Z,97558.41
2022-07-25T04:22:04.091Z,97522.22
2022-07-25T04:27:06.661Z,97539.88
2022-07-25T04:32:09.739Z,97498.94
2022-07-25T04:37:13.239Z,97569.59
2022-07-25T04:42:15.869Z,97509.81
2022-07-25T04:47:18.590Z,97573.19
2022-07-25T04:52:21.518Z,97537.34
2022-07-25T04:57:24.542Z,97563.31
2022-07-25T05:02:28.415Z,97350.16
2022-07-25T05:07:31.348Z,97386.84
2022-07-25T05:12:33.935Z,97548.50
2022-07-25T05:17:36.563Z,97566.34
2022-07-25T05:22:39.393Z,97561.25
2022-07-25T05:27:42.450Z,97541.34
2022-07-25T05:32:45.384Z,97575.06
2022-07-25T05:37:48.676Z,97538.69
2022-07-25T05:42:51.391Z,97428.41
2022-07-25T05:47:54.172Z,97475.47
2022-07-25T05:52:56.798Z,97363.34
2022-07-25T05:58:00.238Z,97539.06
2022-07-25T06:03:05.811Z,97501.41
2022-07-25T06:08:09.867Z,97550.81
2022-07-25T06:13:23.778Z,97544.38
2022-07-25T06:18:56.263Z,97543.00
2022-07-25T06:24:16.108Z,97391.00
2022-07-25T06:29:19.162Z,97549.31
2022-07-25T06:34:24.723Z,97552.41
2022-07-25T06:39:31.908Z,97491.06
2022-07-25T06:44:37.317Z,97531.59
2022-07-25T06:49:48.877Z,97516.84
2022-07-25T06:54:52.602Z,97495.91
2022-07-25T06:59:57.591Z,97532.16
2022-07-25T07:11:42.628Z,97552.59
2022-07-25T07:16:48.535Z,97473.81
2022-07-25T07:21:53.569Z,97464.00
2022-07-25T07:26:58.815Z,97520.13
2022-07-25T07:32:03.200Z,97502.66
2022-07-25T07:41:51.638Z,97524.09
2022-07-25T07:46:54.950Z,97512.69
2022-07-25T18:47:56.379Z,97052.84
2022-07-25T18:53:00.460Z,97077.56
2022-07-25T18:58:03.743Z,97050.28
2022-07-25T19:07:52.066Z,97101.50
2022-07-25T19:12:55.331Z,96917.78
2022-07-25T19:17:58.482Z,97074.91
2022-07-25T19:23:01.910Z,97090.06
2022-07-25T19:28:05.874Z,97129.81
2022-07-25T19:33:11.857Z,97129.94
2022-07-25T19:38:15.192Z,97129.56
2022-07-25T19:43:18.409Z,96907.28
2022-07-25T19:48:24.591Z,97137.72
2022-07-25T19:53:28.732Z,96926.09
2022-07-25T19:58:35.407Z,97083.19
2022-07-25T20:03:43.114Z,97143.31
2022-07-25T20:08:46.332Z,96995.25
2022-07-25T20:13:49.636Z,97160.47
2022-07-25T20:18:52.852Z,97125.53
2022-07-25T20:23:55.921Z,96969.38
2022-07-25T20:29:00.066Z,97166.19
2022-07-25T20:34:04.360Z,97130.75
2022-07-25T20:39:10.285Z,97087.75
2022-07-25T20:44:14.588Z,97144.63
2022-07-25T20:49:17.855Z,97091.47
2022-07-25T20:54:20.894Z,97078.72
2022-07-25T20:59:24.009Z,97123.00
2022-07-25T21:04:27.114Z,97167.97
2022-07-25T21:09:32.711Z,97192.66
2022-07-25T21:14:36.186Z,97219.25
2022-07-25T21:19:39.329Z,97206.53
2022-07-25T21:24:42.837Z,97134.13
2022-07-25T21:29:46.874Z,97171.16
2022-07-25T21:34:50.875Z,97158.41
2022-07-25T21:39:54.918Z,97223.13
2022-07-25T21:44:57.961Z,97090.25
2022-07-25T21:50:25.079Z,97221.31
2022-07-25T21:55:28.407Z,97145.63
2022-07-25T22:00:33.461Z,97204.56
2022-07-25T22:05:37.086Z,97185.75
2022-07-25T22:10:40.583Z,97227.09
2022-07-25T22:15:43.910Z,97226.41
2022-07-25T22:20:47.208Z,97185.41
2022-07-25T22:25:50.693Z,97235.41
2022-07-25T22:30:53.973Z,97225.25
2022-07-25T22:35:58.428Z,97151.88
2022-07-25T22:41:01.580Z,97019.13
2022-07-25T22:46:05.221Z,96997.44
2022-07-25T22:51:08.413Z,97205.53
2022-07-25T22:56:12.075Z,97179.44
2022-07-25T23:01:15.201Z,97219.28
2022-07-25T23:06:23.472Z,97214.41
2022-07-25T23:11:28.121Z,97212.13
2022-07-25T23:16:31.577Z,97138.63
2022-07-25T23:21:35.290Z,97208.69
2022-07-25T23:26:38.691Z,97201.09
2022-07-25T23:31:42.408Z,97149.00
2022-07-25T23:36:46.096Z,97152.13
2022-07-25T23:41:49.371Z,97089.34
2022-07-25T23:46:53.724Z,97188.41
2022-07-25T23:51:58.460Z,97099.34
2022-07-25T23:57:04.766Z,97206.28
